sensor_id;sensor_type;location;lat;lon;timestamp;temperature;humidity
10276;DHT22;5183;51.190;6.820;2024-03-02T00:00:39;7.90;1.00
10276;DHT22;5183;51.190;6.820;2024-03-02T00:03:07;7.90;1.00
10276;DHT22;5183;51.190;6.820;2024-03-02T00:05:35;7.90;1.00
10276;DHT22;5183;51.190;6.820;2024-03-02T00:08:05;7.90;1.00
10276;DHT22;5183;51.190;6.820;2024-03-02T00:10:37;8.00;1.00
10276;DHT22;5183;51.190;6.820;2024-03-02T00:13:05;8.00;1.00
10276;DHT22;5183;51.190;6.820;2024-03-02T00:15:41;8.10;1.00
10276;DHT22;5183;51.190;6.820;2024-03-02T00:18:11;8.10;1.00
10276;DHT22;5183;51.190;6.820;2024-03-02T00:20:38;8.10;1.00
10276;DHT22;5183;51.190;6.820;2024-03-02T00:23:08;8.20;1.00
10276;DHT22;5183;51.190;6.820;2024-03-02T00:25:40;8.20;1.00
10276;DHT22;5183;51.190;6.820;2024-03-02T00:28:13;8.20;1.00
10276;DHT22;5183;51.190;6.820;2024-03-02T00:30:56;8.20;1.00
10276;DHT22;5183;51.190;6.820;2024-03-02T00:33:26;8.20;1.00
10276;DHT22;5183;51.190;6.820;2024-03-02T00:35:54;8.20;1.00
10276;DHT22;5183;51.190;6.820;2024-03-02T00:38:21;8.20;1.00
10276;DHT22;5183;51.190;6.820;2024-03-02T00:40:48;8.20;1.00
10276;DHT22;5183;51.190;6.820;2024-03-02T00:43:42;8.20;1.00
10276;DHT22;5183;51.190;6.820;2024-03-02T00:46:11;8.20;1.00
10276;DHT22;5183;51.190;6.820;2024-03-02T00:48:40;8.20;1.00
10276;DHT22;5183;51.190;6.820;2024-03-02T00:51:11;8.20;1.00
10276;DHT22;5183;51.190;6.820;2024-03-02T00:53:40;8.20;1.00
10276;DHT22;5183;51.190;6.820;2024-03-02T00:56:09;8.20;1.00
10276;DHT22;5183;51.190;6.820;2024-03-02T00:58:37;8.20;1.00
10276;DHT22;5183;51.190;6.820;2024-03-02T01:01:03;8.20;1.00
10276;DHT22;5183;51.190;6.820;2024-03-02T01:03:31;8.20;1.00
10276;DHT22;5183;51.190;6.820;2024-03-02T01:05:58;8.20;1.00
10276;DHT22;5183;51.190;6.820;2024-03-02T01:08:25;8.20;1.00
10276;DHT22;5183;51.190;6.820;2024-03-02T01:10:54;8.20;1.00
10276;DHT22;5183;51.190;6.820;2024-03-02T01:13:21;8.20;1.00
10276;DHT22;5183;51.190;6.820;2024-03-02T01:15:49;8.20;1.00
10276;DHT22;5183;51.190;6.820;2024-03-02T01:18:16;8.10;1.00
10276;DHT22;5183;51.190;6.820;2024-03-02T01:20:42;8.10;1.00
10276;DHT22;5183;51.190;6.820;2024-03-02T01:23:09;8.10;1.00
10276;DHT22;5183;51.190;6.820;2024-03-02T01:25:36;8.00;1.00
10276;DHT22;5183;51.190;6.820;2024-03-02T01:28:05;8.00;1.00
10276;DHT22;5183;51.190;6.820;2024-03-02T01:30:32;8.00;1.00
10276;DHT22;5183;51.190;6.820;2024-03-02T01:32:59;8.00;1.00
10276;DHT22;5183;51.190;6.820;2024-03-02T01:35:25;8.00;1.00
10276;DHT22;5183;51.190;6.820;2024-03-02T01:37:53;7.90;1.00
10276;DHT22;5183;51.190;6.820;2024-03-02T01:40:20;8.00;1.00
10276;DHT22;5183;51.190;6.820;2024-03-02T01:42:47;8.00;1.00
10276;DHT22;5183;51.190;6.820;2024-03-02T01:45:15;7.90;1.00
10276;DHT22;5183;51.190;6.820;2024-03-02T01:47:42;8.00;1.00
10276;DHT22;5183;51.190;6.820;2024-03-02T01:50:11;8.00;1.00
10276;DHT22;5183;51.190;6.820;2024-03-02T01:52:39;8.00;1.00
10276;DHT22;5183;51.190;6.820;2024-03-02T01:55:06;7.90;1.00
10276;DHT22;5183;51.190;6.820;2024-03-02T01:57:34;7.90;1.00
10276;DHT22;5183;51.190;6.820;2024-03-02T02:00:01;7.90;1.00
10276;DHT22;5183;51.190;6.820;2024-03-02T02:02:30;8.00;1.00
10276;DHT22;5183;51.190;6.820;2024-03-02T02:04:57;8.10;1.00
10276;DHT22;5183;51.190;6.820;2024-03-02T02:07:24;8.20;1.00
10276;DHT22;5183;51.190;6.820;2024-03-02T02:09:51;8.20;1.00
10276;DHT22;5183;51.190;6.820;2024-03-02T02:12:18;8.10;1.00
10276;DHT22;5183;51.190;6.820;2024-03-02T02:14:47;8.20;1.00
10276;DHT22;5183;51.190;6.820;2024-03-02T02:17:15;8.30;1.00
10276;DHT22;5183;51.190;6.820;2024-03-02T02:19:43;8.40;1.00
10276;DHT22;5183;51.190;6.820;2024-03-02T02:22:11;8.40;1.00
10276;DHT22;5183;51.190;6.820;2024-03-02T02:24:40;8.40;1.00
10276;DHT22;5183;51.190;6.820;2024-03-02T02:27:07;8.30;1.00
10276;DHT22;5183;51.190;6.820;2024-03-02T02:29:34;8.30;1.00
10276;DHT22;5183;51.190;6.820;2024-03-02T02:32:01;8.30;1.00
10276;DHT22;5183;51.190;6.820;2024-03-02T02:34:27;8.40;1.00
10276;DHT22;5183;51.190;6.820;2024-03-02T02:36:55;8.40;1.00
10276;DHT22;5183;51.190;6.820;2024-03-02T02:39:23;8.60;1.00
10276;DHT22;5183;51.190;6.820;2024-03-02T02:41:50;8.60;1.00
10276;DHT22;5183;51.190;6.820;2024-03-02T02:44:17;8.60;1.00
10276;DHT22;5183;51.190;6.820;2024-03-02T02:46:44;8.50;1.00
10276;DHT22;5183;51.190;6.820;2024-03-02T02:49:11;8.40;1.00
10276;DHT22;5183;51.190;6.820;2024-03-02T02:51:37;8.50;1.00
10276;DHT22;5183;51.190;6.820;2024-03-02T02:54:04;8.50;1.00
10276;DHT22;5183;51.190;6.820;2024-03-02T02:56:32;8.50;1.00
10276;DHT22;5183;51.190;6.820;2024-03-02T02:58:59;8.50;1.00
10276;DHT22;5183;51.190;6.820;2024-03-02T03:01:26;8.50;1.00
10276;DHT22;5183;51.190;6.820;2024-03-02T03:03:53;8.60;1.00
10276;DHT22;5183;51.190;6.820;2024-03-02T03:06:20;8.60;1.00
10276;DHT22;5183;51.190;6.820;2024-03-02T03:08:47;8.50;1.00
10276;DHT22;5183;51.190;6.820;2024-03-02T03:11:14;8.60;1.00
10276;DHT22;5183;51.190;6.820;2024-03-02T03:13:42;8.50;1.00
10276;DHT22;5183;51.190;6.820;2024-03-02T03:16:09;8.50;1.00
10276;DHT22;5183;51.190;6.820;2024-03-02T03:18:36;8.50;1.00
10276;DHT22;5183;51.190;6.820;2024-03-02T03:21:04;8.60;1.00
10276;DHT22;5183;51.190;6.820;2024-03-02T03:23:30;8.50;1.00
10276;DHT22;5183;51.190;6.820;2024-03-02T03:25:57;8.60;1.00
10276;DHT22;5183;51.190;6.820;2024-03-02T03:28:24;8.60;1.00
10276;DHT22;5183;51.190;6.820;2024-03-02T03:30:52;8.60;1.00
10276;DHT22;5183;51.190;6.820;2024-03-02T03:33:19;8.70;1.00
10276;DHT22;5183;51.190;6.820;2024-03-02T03:35:46;8.60;1.00
10276;DHT22;5183;51.190;6.820;2024-03-02T03:38:13;8.60;1.00
10276;DHT22;5183;51.190;6.820;2024-03-02T03:40:40;8.50;1.00
10276;DHT22;5183;51.190;6.820;2024-03-02T03:43:07;8.50;1.00
10276;DHT22;5183;51.190;6.820;2024-03-02T03:45:34;8.50;1.00
10276;DHT22;5183;51.190;6.820;2024-03-02T03:48:03;8.50;1.00
10276;DHT22;5183;51.190;6.820;2024-03-02T03:50:29;8.50;1.00
10276;DHT22;5183;51.190;6.820;2024-03-02T03:52:56;8.40;1.00
10276;DHT22;5183;51.190;6.820;2024-03-02T03:55:23;8.40;1.00
10276;DHT22;5183;51.190;6.820;2024-03-02T03:57:50;8.40;1.00
10276;DHT22;5183;51.190;6.820;2024-03-02T04:00:17;8.40;1.00
10276;DHT22;5183;51.190;6.820;2024-03-02T04:02:44;8.40;1.00
10276;DHT22;5183;51.190;6.820;2024-03-02T04:05:12;8.30;1.00
10276;DHT22;5183;51.190;6.820;2024-03-02T04:07:39;8.20;1.00
10276;DHT22;5183;51.190;6.820;2024-03-02T04:10:08;8.20;1.00
10276;DHT22;5183;51.190;6.820;2024-03-02T04:12:35;8.20;1.00
10276;DHT22;5183;51.190;6.820;2024-03-02T04:15:04;8.10;1.00
10276;DHT22;5183;51.190;6.820;2024-03-02T04:17:32;8.00;1.00
10276;DHT22;5183;51.190;6.820;2024-03-02T04:19:59;8.00;1.00
10276;DHT22;5183;51.190;6.820;2024-03-02T04:22:27;7.90;1.00
10276;DHT22;5183;51.190;6.820;2024-03-02T04:24:54;7.80;1.00
10276;DHT22;5183;51.190;6.820;2024-03-02T04:27:21;7.70;1.00
10276;DHT22;5183;51.190;6.820;2024-03-02T04:29:48;7.70;1.00
10276;DHT22;5183;51.190;6.820;2024-03-02T04:32:15;7.60;1.00
10276;DHT22;5183;51.190;6.820;2024-03-02T04:34:42;7.50;1.00
10276;DHT22;5183;51.190;6.820;2024-03-02T04:37:10;7.50;1.00
10276;DHT22;5183;51.190;6.820;2024-03-02T04:39:39;7.50;1.00
10276;DHT22;5183;51.190;6.820;2024-03-02T04:42:06;7.60;1.00
10276;DHT22;5183;51.190;6.820;2024-03-02T04:44:32;7.60;1.00
10276;DHT22;5183;51.190;6.820;2024-03-02T04:46:59;7.60;1.00
10276;DHT22;5183;51.190;6.820;2024-03-02T04:49:26;7.50;1.00
10276;DHT22;5183;51.190;6.820;2024-03-02T04:51:53;7.50;1.00
10276;DHT22;5183;51.190;6.820;2024-03-02T04:54:20;7.50;1.00
10276;DHT22;5183;51.190;6.820;2024-03-02T04:56:48;7.50;1.00
10276;DHT22;5183;51.190;6.820;2024-03-02T04:59:16;7.40;1.00
10276;DHT22;5183;51.190;6.820;2024-03-02T05:01:43;7.40;1.00
10276;DHT22;5183;51.190;6.820;2024-03-02T05:04:10;7.30;1.00
10276;DHT22;5183;51.190;6.820;2024-03-02T05:06:38;7.30;1.00
10276;DHT22;5183;51.190;6.820;2024-03-02T05:09:06;7.20;1.00
10276;DHT22;5183;51.190;6.820;2024-03-02T05:11:33;7.30;1.00
10276;DHT22;5183;51.190;6.820;2024-03-02T05:14:26;7.30;1.00
10276;DHT22;5183;51.190;6.820;2024-03-02T05:16:52;7.30;1.00
10276;DHT22;5183;51.190;6.820;2024-03-02T05:19:19;7.30;1.00
10276;DHT22;5183;51.190;6.820;2024-03-02T05:21:46;7.30;1.00
10276;DHT22;5183;51.190;6.820;2024-03-02T05:24:14;7.20;1.00
10276;DHT22;5183;51.190;6.820;2024-03-02T05:26:41;7.20;1.00
10276;DHT22;5183;51.190;6.820;2024-03-02T05:29:07;7.20;1.00
10276;DHT22;5183;51.190;6.820;2024-03-02T05:31:36;7.20;1.00
10276;DHT22;5183;51.190;6.820;2024-03-02T05:34:03;7.10;1.00
10276;DHT22;5183;51.190;6.820;2024-03-02T05:36:30;7.20;1.00
10276;DHT22;5183;51.190;6.820;2024-03-02T05:38:57;7.20;1.00
10276;DHT22;5183;51.190;6.820;2024-03-02T05:41:24;7.10;1.00
10276;DHT22;5183;51.190;6.820;2024-03-02T05:43:51;7.00;1.00
10276;DHT22;5183;51.190;6.820;2024-03-02T05:46:18;7.00;1.00
10276;DHT22;5183;51.190;6.820;2024-03-02T05:48:46;6.90;1.00
10276;DHT22;5183;51.190;6.820;2024-03-02T05:51:13;6.80;1.00
10276;DHT22;5183;51.190;6.820;2024-03-02T05:53:40;6.90;1.00
10276;DHT22;5183;51.190;6.820;2024-03-02T05:56:07;6.90;1.00
10276;DHT22;5183;51.190;6.820;2024-03-02T05:58:34;6.90;1.00
10276;DHT22;5183;51.190;6.820;2024-03-02T06:01:15;6.80;1.00
10276;DHT22;5183;51.190;6.820;2024-03-02T06:03:43;6.80;11.20
10276;DHT22;5183;51.190;6.820;2024-03-02T06:06:11;6.70;10.70
10276;DHT22;5183;51.190;6.820;2024-03-02T06:08:38;6.80;7.10
10276;DHT22;5183;51.190;6.820;2024-03-02T06:11:05;6.70;2.00
10276;DHT22;5183;51.190;6.820;2024-03-02T06:13:32;6.80;4.40
10276;DHT22;5183;51.190;6.820;2024-03-02T06:15:59;6.70;3.80
10276;DHT22;5183;51.190;6.820;2024-03-02T06:18:25;6.70;23.70
10276;DHT22;5183;51.190;6.820;2024-03-02T06:20:53;6.80;1.00
10276;DHT22;5183;51.190;6.820;2024-03-02T06:23:21;6.80;1.00
10276;DHT22;5183;51.190;6.820;2024-03-02T06:25:48;6.80;1.00
10276;DHT22;5183;51.190;6.820;2024-03-02T06:28:15;6.90;1.00
10276;DHT22;5183;51.190;6.820;2024-03-02T06:30:42;6.90;1.00
10276;DHT22;5183;51.190;6.820;2024-03-02T06:33:09;6.90;1.00
10276;DHT22;5183;51.190;6.820;2024-03-02T06:35:36;6.90;1.00
10276;DHT22;5183;51.190;6.820;2024-03-02T06:38:03;6.90;1.00
10276;DHT22;5183;51.190;6.820;2024-03-02T06:40:31;6.90;1.00
10276;DHT22;5183;51.190;6.820;2024-03-02T06:42:59;6.90;1.00
10276;DHT22;5183;51.190;6.820;2024-03-02T06:45:26;6.90;1.00
10276;DHT22;5183;51.190;6.820;2024-03-02T06:47:53;6.90;1.00
10276;DHT22;5183;51.190;6.820;2024-03-02T06:50:20;6.90;1.00
10276;DHT22;5183;51.190;6.820;2024-03-02T06:52:47;6.90;1.00
10276;DHT22;5183;51.190;6.820;2024-03-02T06:55:14;7.00;1.00
10276;DHT22;5183;51.190;6.820;2024-03-02T06:57:42;7.10;1.00
10276;DHT22;5183;51.190;6.820;2024-03-02T07:00:10;7.20;1.00
10276;DHT22;5183;51.190;6.820;2024-03-02T07:02:37;7.20;1.00
10276;DHT22;5183;51.190;6.820;2024-03-02T07:05:06;7.20;1.00
10276;DHT22;5183;51.190;6.820;2024-03-02T07:07:33;7.30;1.00
10276;DHT22;5183;51.190;6.820;2024-03-02T07:10:01;7.40;1.00
10276;DHT22;5183;51.190;6.820;2024-03-02T07:12:28;7.40;1.00
10276;DHT22;5183;51.190;6.820;2024-03-02T07:14:56;7.50;1.00
10276;DHT22;5183;51.190;6.820;2024-03-02T07:17:50;7.60;1.00
10276;DHT22;5183;51.190;6.820;2024-03-02T07:20:17;7.70;1.00
10276;DHT22;5183;51.190;6.820;2024-03-02T07:22:44;7.90;1.00
10276;DHT22;5183;51.190;6.820;2024-03-02T07:25:11;7.90;1.00
10276;DHT22;5183;51.190;6.820;2024-03-02T07:27:38;7.90;1.00
10276;DHT22;5183;51.190;6.820;2024-03-02T07:30:07;8.00;1.00
10276;DHT22;5183;51.190;6.820;2024-03-02T07:32:34;8.10;1.00
10276;DHT22;5183;51.190;6.820;2024-03-02T07:35:01;8.10;1.00
10276;DHT22;5183;51.190;6.820;2024-03-02T07:37:29;8.20;1.00
10276;DHT22;5183;51.190;6.820;2024-03-02T07:39:56;8.20;1.00
10276;DHT22;5183;51.190;6.820;2024-03-02T07:42:23;8.20;1.00
10276;DHT22;5183;51.190;6.820;2024-03-02T07:44:50;8.30;1.00
10276;DHT22;5183;51.190;6.820;2024-03-02T07:47:18;8.30;1.00
10276;DHT22;5183;51.190;6.820;2024-03-02T07:49:45;8.40;1.00
10276;DHT22;5183;51.190;6.820;2024-03-02T07:52:12;8.50;1.00
10276;DHT22;5183;51.190;6.820;2024-03-02T07:54:39;8.60;1.00
10276;DHT22;5183;51.190;6.820;2024-03-02T07:57:06;8.70;1.00
10276;DHT22;5183;51.190;6.820;2024-03-02T07:59:34;8.80;1.00
10276;DHT22;5183;51.190;6.820;2024-03-02T08:02:01;9.00;1.00
10276;DHT22;5183;51.190;6.820;2024-03-02T08:04:29;9.10;1.00
10276;DHT22;5183;51.190;6.820;2024-03-02T08:06:56;9.20;1.00
10276;DHT22;5183;51.190;6.820;2024-03-02T08:09:23;9.30;1.00
10276;DHT22;5183;51.190;6.820;2024-03-02T08:11:50;9.30;1.00
10276;DHT22;5183;51.190;6.820;2024-03-02T08:14:17;9.40;1.00
10276;DHT22;5183;51.190;6.820;2024-03-02T08:16:47;9.50;1.00
10276;DHT22;5183;51.190;6.820;2024-03-02T08:19:14;9.50;1.00
10276;DHT22;5183;51.190;6.820;2024-03-02T08:21:42;9.70;1.00
10276;DHT22;5183;51.190;6.820;2024-03-02T08:24:10;9.70;1.00
10276;DHT22;5183;51.190;6.820;2024-03-02T08:26:37;9.70;1.00
10276;DHT22;5183;51.190;6.820;2024-03-02T08:29:04;9.80;1.00
10276;DHT22;5183;51.190;6.820;2024-03-02T08:31:30;9.80;1.00
10276;DHT22;5183;51.190;6.820;2024-03-02T08:33:57;9.80;1.00
10276;DHT22;5183;51.190;6.820;2024-03-02T08:36:24;9.80;1.00
10276;DHT22;5183;51.190;6.820;2024-03-02T08:38:52;9.80;1.00
10276;DHT22;5183;51.190;6.820;2024-03-02T08:41:19;9.80;1.00
10276;DHT22;5183;51.190;6.820;2024-03-02T08:43:46;9.80;1.00
10276;DHT22;5183;51.190;6.820;2024-03-02T08:46:13;9.80;1.00
10276;DHT22;5183;51.190;6.820;2024-03-02T08:48:40;9.70;1.00
10276;DHT22;5183;51.190;6.820;2024-03-02T08:51:07;9.60;1.00
10276;DHT22;5183;51.190;6.820;2024-03-02T08:53:35;9.50;1.00
10276;DHT22;5183;51.190;6.820;2024-03-02T08:56:05;9.50;1.00
10276;DHT22;5183;51.190;6.820;2024-03-02T08:58:32;9.60;1.00
10276;DHT22;5183;51.190;6.820;2024-03-02T09:00:59;9.50;1.00
10276;DHT22;5183;51.190;6.820;2024-03-02T09:03:26;9.40;1.00
10276;DHT22;5183;51.190;6.820;2024-03-02T09:05:53;9.50;1.00
10276;DHT22;5183;51.190;6.820;2024-03-02T09:08:19;9.60;1.00
10276;DHT22;5183;51.190;6.820;2024-03-02T09:10:46;9.50;1.00
10276;DHT22;5183;51.190;6.820;2024-03-02T09:13:15;9.60;1.00
10276;DHT22;5183;51.190;6.820;2024-03-02T09:15:42;9.80;1.00
10276;DHT22;5183;51.190;6.820;2024-03-02T09:18:10;9.90;1.00
10276;DHT22;5183;51.190;6.820;2024-03-02T09:20:37;10.00;1.00
10276;DHT22;5183;51.190;6.820;2024-03-02T09:23:04;10.00;1.00
10276;DHT22;5183;51.190;6.820;2024-03-02T09:25:31;10.00;1.00
10276;DHT22;5183;51.190;6.820;2024-03-02T09:27:57;10.10;1.00
10276;DHT22;5183;51.190;6.820;2024-03-02T09:30:26;10.20;1.00
10276;DHT22;5183;51.190;6.820;2024-03-02T09:32:52;10.30;1.00
10276;DHT22;5183;51.190;6.820;2024-03-02T09:35:19;10.30;1.00
10276;DHT22;5183;51.190;6.820;2024-03-02T09:37:46;10.40;1.00
10276;DHT22;5183;51.190;6.820;2024-03-02T09:40:13;10.40;1.00
10276;DHT22;5183;51.190;6.820;2024-03-02T09:42:42;10.50;1.00
10276;DHT22;5183;51.190;6.820;2024-03-02T09:45:09;10.60;1.00
10276;DHT22;5183;51.190;6.820;2024-03-02T09:47:38;10.60;1.00
10276;DHT22;5183;51.190;6.820;2024-03-02T09:50:06;10.80;1.00
10276;DHT22;5183;51.190;6.820;2024-03-02T09:52:33;11.00;1.00
10276;DHT22;5183;51.190;6.820;2024-03-02T09:55:00;11.10;1.00
10276;DHT22;5183;51.190;6.820;2024-03-02T09:57:27;11.20;1.00
10276;DHT22;5183;51.190;6.820;2024-03-02T09:59:54;11.20;1.00
10276;DHT22;5183;51.190;6.820;2024-03-02T10:02:21;11.20;1.00
10276;DHT22;5183;51.190;6.820;2024-03-02T10:04:50;11.30;1.00
10276;DHT22;5183;51.190;6.820;2024-03-02T10:07:18;11.40;1.00
10276;DHT22;5183;51.190;6.820;2024-03-02T10:09:46;11.40;1.00
10276;DHT22;5183;51.190;6.820;2024-03-02T10:12:14;11.70;1.00
10276;DHT22;5183;51.190;6.820;2024-03-02T10:14:42;11.80;1.00
10276;DHT22;5183;51.190;6.820;2024-03-02T10:17:10;11.90;1.00
10276;DHT22;5183;51.190;6.820;2024-03-02T10:19:38;12.10;1.00
10276;DHT22;5183;51.190;6.820;2024-03-02T10:22:07;12.10;1.00
10276;DHT22;5183;51.190;6.820;2024-03-02T10:24:36;12.30;1.00
10276;DHT22;5183;51.190;6.820;2024-03-02T10:27:08;12.40;1.00
10276;DHT22;5183;51.190;6.820;2024-03-02T10:29:39;12.50;1.00
10276;DHT22;5183;51.190;6.820;2024-03-02T10:32:09;12.60;1.00
10276;DHT22;5183;51.190;6.820;2024-03-02T10:34:36;12.70;1.00
10276;DHT22;5183;51.190;6.820;2024-03-02T10:37:04;12.80;1.00
10276;DHT22;5183;51.190;6.820;2024-03-02T10:39:34;12.80;1.00
10276;DHT22;5183;51.190;6.820;2024-03-02T10:42:02;12.80;1.00
10276;DHT22;5183;51.190;6.820;2024-03-02T10:44:30;13.00;1.00
10276;DHT22;5183;51.190;6.820;2024-03-02T10:47:00;13.00;1.00
10276;DHT22;5183;51.190;6.820;2024-03-02T10:49:29;13.00;1.00
10276;DHT22;5183;51.190;6.820;2024-03-02T10:51:57;13.00;1.00
10276;DHT22;5183;51.190;6.820;2024-03-02T10:54:24;13.00;1.00
10276;DHT22;5183;51.190;6.820;2024-03-02T10:56:58;12.90;1.00
10276;DHT22;5183;51.190;6.820;2024-03-02T10:59:28;12.80;1.00
10276;DHT22;5183;51.190;6.820;2024-03-02T11:01:57;12.70;1.00
10276;DHT22;5183;51.190;6.820;2024-03-02T11:04:26;12.60;1.00
10276;DHT22;5183;51.190;6.820;2024-03-02T11:06:58;12.60;1.00
10276;DHT22;5183;51.190;6.820;2024-03-02T11:09:27;12.60;1.00
10276;DHT22;5183;51.190;6.820;2024-03-02T11:12:00;12.60;1.00
10276;DHT22;5183;51.190;6.820;2024-03-02T11:14:30;12.60;1.00
10276;DHT22;5183;51.190;6.820;2024-03-02T11:16:59;12.70;1.00
10276;DHT22;5183;51.190;6.820;2024-03-02T11:19:27;12.70;1.00
10276;DHT22;5183;51.190;6.820;2024-03-02T11:21:55;12.70;1.00
10276;DHT22;5183;51.190;6.820;2024-03-02T11:24:30;12.70;1.00
10276;DHT22;5183;51.190;6.820;2024-03-02T11:27:02;12.70;1.00
10276;DHT22;5183;51.190;6.820;2024-03-02T11:29:45;12.80;1.00
10276;DHT22;5183;51.190;6.820;2024-03-02T11:32:21;12.90;1.00
10276;DHT22;5183;51.190;6.820;2024-03-02T11:34:50;12.90;1.00
10276;DHT22;5183;51.190;6.820;2024-03-02T11:37:17;13.00;1.00
10276;DHT22;5183;51.190;6.820;2024-03-02T11:39:49;13.00;1.00
10276;DHT22;5183;51.190;6.820;2024-03-02T11:42:17;13.00;1.00
10276;DHT22;5183;51.190;6.820;2024-03-02T11:44:47;13.00;1.00
10276;DHT22;5183;51.190;6.820;2024-03-02T11:47:16;13.10;1.00
10276;DHT22;5183;51.190;6.820;2024-03-02T11:49:44;13.20;1.00
10276;DHT22;5183;51.190;6.820;2024-03-02T11:52:12;13.40;1.00
10276;DHT22;5183;51.190;6.820;2024-03-02T11:54:41;13.50;1.00
10276;DHT22;5183;51.190;6.820;2024-03-02T11:57:12;13.70;1.00
10276;DHT22;5183;51.190;6.820;2024-03-02T11:59:41;13.70;1.00
10276;DHT22;5183;51.190;6.820;2024-03-02T12:02:14;13.90;1.00
10276;DHT22;5183;51.190;6.820;2024-03-02T12:04:42;14.10;1.00
10276;DHT22;5183;51.190;6.820;2024-03-02T12:07:10;14.20;1.00
10276;DHT22;5183;51.190;6.820;2024-03-02T12:09:37;14.20;1.00
10276;DHT22;5183;51.190;6.820;2024-03-02T12:12:05;14.10;1.00
10276;DHT22;5183;51.190;6.820;2024-03-02T12:14:33;14.10;1.00
10276;DHT22;5183;51.190;6.820;2024-03-02T12:17:02;14.10;1.00
10276;DHT22;5183;51.190;6.820;2024-03-02T12:19:30;14.20;1.00
10276;DHT22;5183;51.190;6.820;2024-03-02T12:21:57;14.30;1.00
10276;DHT22;5183;51.190;6.820;2024-03-02T12:24:25;14.40;1.00
10276;DHT22;5183;51.190;6.820;2024-03-02T12:26:53;14.40;1.00
10276;DHT22;5183;51.190;6.820;2024-03-02T12:29:21;14.40;1.00
10276;DHT22;5183;51.190;6.820;2024-03-02T12:31:48;14.50;1.00
10276;DHT22;5183;51.190;6.820;2024-03-02T12:34:17;14.60;1.00
10276;DHT22;5183;51.190;6.820;2024-03-02T12:36:46;14.70;1.00
10276;DHT22;5183;51.190;6.820;2024-03-02T12:39:15;14.80;1.00
10276;DHT22;5183;51.190;6.820;2024-03-02T12:41:42;14.90;1.00
10276;DHT22;5183;51.190;6.820;2024-03-02T12:44:09;15.00;1.00
10276;DHT22;5183;51.190;6.820;2024-03-02T12:46:36;15.20;1.00
10276;DHT22;5183;51.190;6.820;2024-03-02T12:49:08;15.20;1.00
10276;DHT22;5183;51.190;6.820;2024-03-02T12:51:39;15.30;1.00
10276;DHT22;5183;51.190;6.820;2024-03-02T12:54:07;15.30;1.00
10276;DHT22;5183;51.190;6.820;2024-03-02T12:56:35;15.30;1.00
10276;DHT22;5183;51.190;6.820;2024-03-02T12:59:03;15.30;1.00
10276;DHT22;5183;51.190;6.820;2024-03-02T13:01:30;15.10;1.00
10276;DHT22;5183;51.190;6.820;2024-03-02T13:03:58;15.10;1.00
10276;DHT22;5183;51.190;6.820;2024-03-02T13:06:25;15.10;1.00
10276;DHT22;5183;51.190;6.820;2024-03-02T13:08:55;15.10;1.00
10276;DHT22;5183;51.190;6.820;2024-03-02T13:11:22;15.10;1.00
10276;DHT22;5183;51.190;6.820;2024-03-02T13:13:50;15.00;1.00
10276;DHT22;5183;51.190;6.820;2024-03-02T13:16:18;14.90;1.00
10276;DHT22;5183;51.190;6.820;2024-03-02T13:18:45;14.90;1.00
10276;DHT22;5183;51.190;6.820;2024-03-02T13:21:12;14.90;1.00
10276;DHT22;5183;51.190;6.820;2024-03-02T13:23:39;14.90;1.00
10276;DHT22;5183;51.190;6.820;2024-03-02T13:26:07;14.90;1.00
10276;DHT22;5183;51.190;6.820;2024-03-02T13:28:36;14.90;1.00
10276;DHT22;5183;51.190;6.820;2024-03-02T13:31:04;14.80;1.00
10276;DHT22;5183;51.190;6.820;2024-03-02T13:33:32;14.80;1.00
10276;DHT22;5183;51.190;6.820;2024-03-02T13:35:59;14.80;1.00
10276;DHT22;5183;51.190;6.820;2024-03-02T13:38:27;15.00;1.00
10276;DHT22;5183;51.190;6.820;2024-03-02T13:40:54;15.10;1.00
10276;DHT22;5183;51.190;6.820;2024-03-02T13:43:22;15.20;1.00
10276;DHT22;5183;51.190;6.820;2024-03-02T13:45:50;15.20;1.00
10276;DHT22;5183;51.190;6.820;2024-03-02T13:48:19;15.10;1.00
10276;DHT22;5183;51.190;6.820;2024-03-02T13:50:46;15.00;1.00
10276;DHT22;5183;51.190;6.820;2024-03-02T13:53:12;15.00;1.00
10276;DHT22;5183;51.190;6.820;2024-03-02T13:55:39;15.00;1.00
10276;DHT22;5183;51.190;6.820;2024-03-02T13:58:07;15.00;1.00
10276;DHT22;5183;51.190;6.820;2024-03-02T14:00:36;15.00;1.00
10276;DHT22;5183;51.190;6.820;2024-03-02T14:03:04;15.20;1.00
10276;DHT22;5183;51.190;6.820;2024-03-02T14:05:31;15.20;1.00
10276;DHT22;5183;51.190;6.820;2024-03-02T14:07:58;15.10;1.00
10276;DHT22;5183;51.190;6.820;2024-03-02T14:10:26;15.10;1.00
10276;DHT22;5183;51.190;6.820;2024-03-02T14:12:53;15.20;1.00
10276;DHT22;5183;51.190;6.820;2024-03-02T14:15:21;15.10;1.00
10276;DHT22;5183;51.190;6.820;2024-03-02T14:17:49;15.00;1.00
10276;DHT22;5183;51.190;6.820;2024-03-02T14:20:16;15.00;1.00
10276;DHT22;5183;51.190;6.820;2024-03-02T14:22:47;14.90;1.00
10276;DHT22;5183;51.190;6.820;2024-03-02T14:25:14;14.90;1.00
10276;DHT22;5183;51.190;6.820;2024-03-02T14:27:42;15.00;1.00
10276;DHT22;5183;51.190;6.820;2024-03-02T14:30:09;15.00;1.00
10276;DHT22;5183;51.190;6.820;2024-03-02T14:32:36;15.00;1.00
10276;DHT22;5183;51.190;6.820;2024-03-02T14:35:05;15.10;1.00
10276;DHT22;5183;51.190;6.820;2024-03-02T14:37:35;15.00;1.00
10276;DHT22;5183;51.190;6.820;2024-03-02T14:40:03;15.00;1.00
10276;DHT22;5183;51.190;6.820;2024-03-02T14:42:32;15.00;1.00
10276;DHT22;5183;51.190;6.820;2024-03-02T14:44:58;15.00;1.00
10276;DHT22;5183;51.190;6.820;2024-03-02T14:47:25;15.00;1.00
10276;DHT22;5183;51.190;6.820;2024-03-02T14:49:52;15.10;1.00
10276;DHT22;5183;51.190;6.820;2024-03-02T14:52:21;15.10;1.00
10276;DHT22;5183;51.190;6.820;2024-03-02T14:54:48;15.20;1.00
10276;DHT22;5183;51.190;6.820;2024-03-02T14:57:14;15.40;1.00
10276;DHT22;5183;51.190;6.820;2024-03-02T14:59:41;15.70;1.00
10276;DHT22;5183;51.190;6.820;2024-03-02T15:02:08;15.80;1.00
10276;DHT22;5183;51.190;6.820;2024-03-02T15:04:35;16.00;1.00
10276;DHT22;5183;51.190;6.820;2024-03-02T15:07:02;16.00;99.90
10276;DHT22;5183;51.190;6.820;2024-03-02T15:09:30;16.20;1.00
10276;DHT22;5183;51.190;6.820;2024-03-02T15:11:59;16.30;1.00
10276;DHT22;5183;51.190;6.820;2024-03-02T15:14:26;16.30;1.00
10276;DHT22;5183;51.190;6.820;2024-03-02T15:16:53;16.20;1.00
10276;DHT22;5183;51.190;6.820;2024-03-02T15:19:21;16.20;99.90
10276;DHT22;5183;51.190;6.820;2024-03-02T15:21:48;16.10;99.90
10276;DHT22;5183;51.190;6.820;2024-03-02T15:24:15;16.10;99.90
10276;DHT22;5183;51.190;6.820;2024-03-02T15:26:43;16.10;99.90
10276;DHT22;5183;51.190;6.820;2024-03-02T15:29:10;16.20;99.90
10276;DHT22;5183;51.190;6.820;2024-03-02T15:31:37;16.30;99.90
10276;DHT22;5183;51.190;6.820;2024-03-02T15:34:04;16.40;99.90
10276;DHT22;5183;51.190;6.820;2024-03-02T15:36:33;16.30;99.90
10276;DHT22;5183;51.190;6.820;2024-03-02T15:39:00;16.20;99.90
10276;DHT22;5183;51.190;6.820;2024-03-02T15:41:28;16.20;99.90
10276;DHT22;5183;51.190;6.820;2024-03-02T15:43:56;16.00;99.90
10276;DHT22;5183;51.190;6.820;2024-03-02T15:46:23;15.90;99.90
10276;DHT22;5183;51.190;6.820;2024-03-02T15:48:50;15.70;99.90
10276;DHT22;5183;51.190;6.820;2024-03-02T15:51:17;15.50;99.90
10276;DHT22;5183;51.190;6.820;2024-03-02T15:53:44;15.30;99.90
10276;DHT22;5183;51.190;6.820;2024-03-02T15:56:10;15.30;99.90
10276;DHT22;5183;51.190;6.820;2024-03-02T15:58:37;15.20;99.90
10276;DHT22;5183;51.190;6.820;2024-03-02T16:01:06;15.10;99.90
10276;DHT22;5183;51.190;6.820;2024-03-02T16:03:32;15.00;99.90
10276;DHT22;5183;51.190;6.820;2024-03-02T16:05:59;15.00;1.00
10276;DHT22;5183;51.190;6.820;2024-03-02T16:08:26;15.10;99.90
10276;DHT22;5183;51.190;6.820;2024-03-02T16:10:53;15.20;1.00
10276;DHT22;5183;51.190;6.820;2024-03-02T16:13:20;15.30;1.00